createdAt,value
2022-10-22T00:00:58.579Z,95234.2
2022-10-22T00:02:01.063Z,95239.7
2022-10-22T00:03:03.724Z,95238.8
2022-10-22T00:04:06.311Z,95239.6
2022-10-22T00:05:09.125Z,95243.5
2022-10-22T00:06:11.642Z,95238.9
2022-10-22T00:07:14.120Z,95237.5
2022-10-22T00:08:16.314Z,95246.8
2022-10-22T00:09:18.932Z,95247.3
2022-10-22T00:10:21.512Z,95245.9
2022-10-22T00:11:23.985Z,95250.2
2022-10-22T00:12:25.983Z,95251.3
2022-10-22T00:13:27.873Z,95248
2022-10-22T00:14:30.354Z,95247.7
2022-10-22T00:15:32.812Z,95256.4
2022-10-22T00:16:34.740Z,95250.1
2022-10-22T00:17:38.085Z,95248
2022-10-22T00:18:41.080Z,95240.7
2022-10-22T00:19:43.537Z,95247.1
2022-10-22T00:20:46.034Z,95249.6
2022-10-22T00:21:48.530Z,95254.4
2022-10-22T00:23:54.010Z,95251
2022-10-22T00:24:56.644Z,95248
2022-10-22T00:25:59.121Z,95251.2
2022-10-22T00:27:01.590Z,95256.7
2022-10-22T00:28:03.525Z,95259.2
2022-10-22T00:29:05.984Z,95258.9
2022-10-22T00:30:08.460Z,95254.2
2022-10-22T00:31:11.137Z,95263.4
2022-10-22T00:32:13.036Z,95271.2
2022-10-22T00:33:14.678Z,95276.5
2022-10-22T00:34:16.898Z,95287.5
2022-10-22T00:35:19.388Z,95288.3
2022-10-22T00:36:21.925Z,95294.9
2022-10-22T00:37:24.173Z,95302
2022-10-22T00:38:26.658Z,95302
2022-10-22T00:39:28.858Z,95305.4
2022-10-22T00:40:31.351Z,95307.5
2022-10-22T00:41:33.843Z,95309.5
2022-10-22T00:42:36.057Z,95311.7
2022-10-22T00:43:38.348Z,95318.1
2022-10-22T00:44:40.545Z,95322.7
2022-10-22T00:45:43.013Z,95322.6
2022-10-22T00:46:45.486Z,95325.2
2022-10-22T00:47:48.229Z,95323.2
2022-10-22T00:48:50.434Z,95320.2
2022-10-22T00:49:53.248Z,95322.6
2022-10-22T00:50:56.309Z,95327.4
2022-10-22T00:51:58.789Z,95324.3
2022-10-22T00:53:01.014Z,95319.8
2022-10-22T00:54:03.508Z,95318.1
2022-10-22T00:55:05.788Z,95311.5
2022-10-22T00:56:08.258Z,95310.2
2022-10-22T00:57:10.695Z,95308.3
2022-10-22T00:58:13.162Z,95305.5
2022-10-22T00:59:15.680Z,95302.4
2022-10-22T01:00:18.148Z,95305.4
2022-10-22T01:01:20.854Z,95302.2
2022-10-22T01:02:23.652Z,95299.3
2022-10-22T01:03:25.840Z,95299.6
2022-10-22T01:04:28.034Z,95294.4
2022-10-22T01:05:30.253Z,95298
2022-10-22T01:06:32.145Z,95293.5
2022-10-22T01:07:34.350Z,95293.2
2022-10-22T01:08:36.915Z,95296.5
2022-10-22T01:09:39.239Z,95295.9
2022-10-22T01:10:41.435Z,95297.4
2022-10-22T01:11:43.908Z,95301.2
2022-10-22T01:12:46.099Z,95298.8
2022-10-22T01:13:49.000Z,95301
2022-10-22T01:14:50.902Z,95298.2
2022-10-22T01:15:53.100Z,95297.4
2022-10-22T01:16:55.670Z,95295.4
2022-10-22T01:17:57.844Z,95286.6
2022-10-22T01:19:00.032Z,95284.8
2022-10-22T01:20:02.237Z,95283.7
2022-10-22T01:21:04.457Z,95289.8
2022-10-22T01:22:06.648Z,95289
2022-10-22T01:23:09.602Z,95290.3
2022-10-22T01:24:12.152Z,95287.9
2022-10-22T01:25:14.353Z,95291.1
2022-10-22T01:26:16.512Z,95287.1
2022-10-22T01:27:19.088Z,95289.8
2022-10-22T01:28:21.563Z,95286.3
2022-10-22T01:29:23.757Z,95288
2022-10-22T01:30:25.952Z,95282.9
2022-10-22T01:31:27.862Z,95284.9
2022-10-22T01:32:30.329Z,95280.1
2022-10-22T01:33:32.516Z,95283.4
2022-10-22T01:34:34.427Z,95280.4
2022-10-22T01:35:36.909Z,95277.8
2022-10-22T01:36:39.910Z,95278
2022-10-22T01:37:44.007Z,95284.8
2022-10-22T01:38:46.937Z,95285.2
2022-10-22T01:39:49.582Z,95292
2022-10-22T01:40:52.057Z,95300
2022-10-22T01:41:53.990Z,95305.6
2022-10-22T01:42:56.824Z,95309.5
2022-10-22T01:43:59.026Z,95304.1
2022-10-22T01:45:01.499Z,95302.5
2022-10-22T01:46:03.978Z,95304.6
2022-10-22T01:47:06.450Z,95303.2
2022-10-22T01:48:08.375Z,95297.8
2022-10-22T01:49:11.256Z,95298.8
2022-10-22T01:50:13.471Z,95295.9
2022-10-22T01:51:15.958Z,95292.7
2022-10-22T01:52:18.457Z,95295.6
2022-10-22T01:53:20.924Z,95295.5
2022-10-22T01:54:23.418Z,95295.8
2022-10-22T01:55:25.664Z,95297.3
2022-10-22T01:56:28.160Z,95297.2
2022-10-22T01:57:30.638Z,95290.7
2022-10-22T01:58:32.845Z,95291.3
2022-10-22T01:59:35.046Z,95294.6
2022-10-22T02:00:37.675Z,95298.4
2022-10-22T02:01:39.928Z,95299.1
2022-10-22T02:02:42.693Z,95301.1
2022-10-22T02:03:44.970Z,95301.6
2022-10-22T02:04:47.783Z,95302.6
2022-10-22T02:05:49.979Z,95303
2022-10-22T02:06:52.182Z,95311
2022-10-22T02:07:54.668Z,95310.7
2022-10-22T02:08:57.567Z,95314.7
2022-10-22T02:09:59.889Z,95311.6
2022-10-22T02:11:02.400Z,95314.3
2022-10-22T02:13:08.476Z,95313.3
2022-10-22T02:14:11.115Z,95311
2022-10-22T02:15:13.620Z,95315.8
2022-10-22T02:16:16.091Z,95319
2022-10-22T02:17:18.568Z,95317.1
2022-10-22T02:18:21.048Z,95322.2
2022-10-22T02:19:23.250Z,95322.7
2022-10-22T02:20:25.459Z,95327.3
2022-10-22T02:21:27.646Z,95335.3
2022-10-22T02:22:30.112Z,95331.6
2022-10-22T02:23:32.335Z,95335.1
2022-10-22T02:24:34.799Z,95335.5
2022-10-22T02:25:37.293Z,95338
2022-10-22T02:26:40.001Z,95341.2
2022-10-22T02:27:42.224Z,95344.7
2022-10-22T02:28:44.699Z,95347.1
2022-10-22T02:29:46.622Z,95343
2022-10-22T02:30:48.816Z,95344
2022-10-22T02:31:50.734Z,95347
2022-10-22T02:32:53.043Z,95350.3
2022-10-22T02:33:55.914Z,95353.7
2022-10-22T02:34:58.391Z,95349.4
2022-10-22T02:36:00.581Z,95355.5
2022-10-22T02:37:03.053Z,95357.2
2022-10-22T02:38:05.224Z,95359.5
2022-10-22T02:39:07.703Z,95364.9
2022-10-22T02:40:10.397Z,95360
2022-10-22T02:41:12.893Z,95363.9
2022-10-22T02:42:15.396Z,95363.6
2022-10-22T02:43:17.636Z,95368.6
2022-10-22T02:44:20.119Z,95369.1
2022-10-22T02:45:22.595Z,95369.1
2022-10-22T02:46:24.800Z,95360.6
2022-10-22T02:47:27.007Z,95357.7
2022-10-22T02:48:29.482Z,95357.7
2022-10-22T02:49:31.965Z,95350.5
2022-10-22T02:50:34.133Z,95348.6
2022-10-22T02:51:36.333Z,95347.9
2022-10-22T02:52:40.534Z,95355.1
2022-10-22T02:53:43.723Z,95359.6
2022-10-22T02:54:45.951Z,95358.6
2022-10-22T02:55:48.444Z,95361.3
2022-10-22T02:56:50.931Z,95360.1
2022-10-22T02:57:53.452Z,95358.6
2022-10-22T02:58:55.942Z,95365.2
2022-10-22T02:59:58.145Z,95357.7
2022-10-22T03:01:00.292Z,95358.4
2022-10-22T03:02:02.836Z,95363.6
2022-10-22T03:03:05.305Z,95366
2022-10-22T03:04:07.782Z,95366.7
2022-10-22T03:05:10.314Z,95363.2
2022-10-22T03:06:12.775Z,95364.6
2022-10-22T03:07:15.349Z,95362.9
2022-10-22T03:08:17.550Z,95358.6
2022-10-22T03:10:25.039Z,95361.5
2022-10-22T03:11:27.508Z,95365.1
2022-10-22T03:12:29.993Z,95369.1
2022-10-22T03:13:32.227Z,95367.6
2022-10-22T03:14:34.716Z,95368.8
2022-10-22T03:15:36.955Z,95365.6
2022-10-22T03:16:39.297Z,95365.5
2022-10-22T03:17:42.836Z,95368.8
2022-10-22T03:18:45.504Z,95371.2
2022-10-22T03:19:48.407Z,95379.3
2022-10-22T03:20:50.599Z,95378.1
2022-10-22T03:21:52.802Z,95384.7
2022-10-22T03:22:55.353Z,95386.9
2022-10-22T03:23:57.576Z,95386.9
2022-10-22T03:25:00.056Z,95393.9
2022-10-22T03:26:02.285Z,95388.7
2022-10-22T03:27:04.740Z,95390
2022-10-22T03:28:07.251Z,95392.3
2022-10-22T03:29:09.791Z,95395.7
2022-10-22T03:30:12.292Z,95397.2
2022-10-22T03:31:14.763Z,95391
2022-10-22T03:32:16.962Z,95393.6
2022-10-22T03:33:19.149Z,95388.7
2022-10-22T03:34:21.637Z,95385.3
2022-10-22T03:35:23.837Z,95386.5
2022-10-22T03:36:25.781Z,95391.2
2022-10-22T03:37:28.247Z,95386.9
2022-10-22T03:38:30.169Z,95393.6
2022-10-22T03:39:32.353Z,95404.9
2022-10-22T03:40:34.846Z,95406.8
2022-10-22T03:41:37.331Z,95409.9
2022-10-22T03:42:39.524Z,95411.7
2022-10-22T03:43:42.014Z,95416.7
2022-10-22T03:44:44.552Z,95415.2
2022-10-22T03:45:47.404Z,95422.7
2022-10-22T03:46:50.053Z,95430
2022-10-22T03:47:52.519Z,95430
2022-10-22T03:48:54.430Z,95431.2
2022-10-22T03:49:56.902Z,95433.6
2022-10-22T03:50:59.100Z,95434.9
2022-10-22T03:52:01.566Z,95437.7
2022-10-22T03:53:04.045Z,95439.1
2022-10-22T03:54:06.518Z,95438
2022-10-22T03:55:08.994Z,95433.6
2022-10-22T03:56:11.465Z,95429.7
2022-10-22T03:57:13.754Z,95426.1
2022-10-22T03:58:16.251Z,95426.6
2022-10-22T03:59:18.489Z,95426.6
2022-10-22T04:00:21.026Z,95428.7
2022-10-22T04:01:23.766Z,95426.9
2022-10-22T04:02:26.399Z,95425.4
2022-10-22T04:03:28.342Z,95427.5
2022-10-22T04:04:30.822Z,95432.1
2022-10-22T04:05:32.477Z,95432.1
2022-10-22T04:06:34.950Z,95429.5
2022-10-22T04:07:37.758Z,95427.1
2022-10-22T04:08:40.790Z,95426
2022-10-22T04:09:43.382Z,95424.8
2022-10-22T04:10:45.856Z,95422.4
2022-10-22T04:11:48.322Z,95428.5
2022-10-22T04:12:50.830Z,95425.9
2022-10-22T04:13:53.293Z,95420.2
2022-10-22T04:14:55.788Z,95416.3
2022-10-22T04:15:58.034Z,95413.9
2022-10-22T04:17:00.528Z,95413.7
2022-10-22T04:18:02.723Z,95413.6
2022-10-22T04:19:05.202Z,95420.6
2022-10-22T04:20:07.133Z,95417.3
2022-10-22T04:21:09.630Z,95420.1
2022-10-22T04:22:12.099Z,95419.3
2022-10-22T04:23:14.574Z,95415.4
2022-10-22T04:24:17.062Z,95412.8
2022-10-22T04:25:19.538Z,95412.3
2022-10-22T04:26:21.720Z,95411.9
2022-10-22T04:27:24.198Z,95410.1
2022-10-22T04:28:26.700Z,95411.8
2022-10-22T04:29:29.169Z,95415.5
2022-10-22T04:30:31.357Z,95421.8
2022-10-22T04:31:33.872Z,95417.2
2022-10-22T04:32:36.392Z,95414
2022-10-22T04:33:38.586Z,95411.9
2022-10-22T04:34:40.783Z,95406.2
2022-10-22T04:35:42.987Z,95404.1
2022-10-22T04:36:45.460Z,95397.6
2022-10-22T04:37:47.658Z,95397.1
2022-10-22T04:38:50.239Z,95395.8
2022-10-22T04:39:52.454Z,95399.5
2022-10-22T04:40:54.922Z,95403.9
2022-10-22T04:41:57.126Z,95405
2022-10-22T04:42:59.304Z,95405.1
2022-10-22T04:44:02.283Z,95411.6
2022-10-22T04:45:04.600Z,95413.5
2022-10-22T04:46:06.534Z,95416.1
2022-10-22T04:47:08.789Z,95417.1
2022-10-22T04:48:11.006Z,95419.4
2022-10-22T04:49:13.202Z,95418.6
2022-10-22T04:50:14.864Z,95418.8
2022-10-22T04:51:17.335Z,95418.4
2022-10-22T04:52:19.258Z,95416.6
2022-10-22T04:53:20.891Z,95418
2022-10-22T04:54:23.368Z,95414.7
2022-10-22T04:55:28.011Z,95415.8
2022-10-22T04:56:30.530Z,95415
2022-10-22T04:57:33.010Z,95414
2022-10-22T04:58:35.480Z,95410.6
2022-10-22T04:59:37.706Z,95410.6
2022-10-22T05:00:40.451Z,95409.1
2022-10-22T05:01:44.265Z,95412
2022-10-22T05:02:46.494Z,95411.2
2022-10-22T05:03:48.445Z,95416
2022-10-22T05:04:50.637Z,95413
2022-10-22T05:05:52.849Z,95411.5
2022-10-22T05:06:55.053Z,95416.1
2022-10-22T05:07:57.266Z,95412.5
2022-10-22T05:08:59.391Z,95418.7
2022-10-22T05:10:01.945Z,95415.4
2022-10-22T05:11:04.142Z,95413.7
2022-10-22T05:12:06.047Z,95416.1
2022-10-22T05:13:08.243Z,95408.2
2022-10-22T05:14:10.438Z,95408.8
2022-10-22T05:15:12.926Z,95408.9
2022-10-22T05:16:15.122Z,95407.3
2022-10-22T05:17:17.609Z,95411.1
2022-10-22T05:19:25.282Z,95410.2
2022-10-22T05:20:27.770Z,95409.5
2022-10-22T05:21:29.687Z,95409.7
2022-10-22T05:22:31.899Z,95414.8
2022-10-22T05:23:34.367Z,95417.3
2022-10-22T05:24:36.566Z,95416.6
2022-10-22T05:25:38.878Z,95414.7
2022-10-22T05:26:41.133Z,95415.7
2022-10-22T05:27:44.315Z,95419.5
2022-10-22T05:28:46.517Z,95413.7
2022-10-22T05:29:48.691Z,95415.5
2022-10-22T05:30:51.210Z,95415
2022-10-22T05:31:53.706Z,95415.3
2022-10-22T05:32:55.681Z,95414.2
2022-10-22T05:33:58.154Z,95416.2
2022-10-22T05:35:00.677Z,95419.5
2022-10-22T05:36:03.161Z,95423.5
2022-10-22T05:37:05.642Z,95427
2022-10-22T05:38:07.839Z,95429.4
2022-10-22T05:39:09.745Z,95422.9
2022-10-22T05:41:16.939Z,95424.8
2022-10-22T05:42:19.412Z,95422.2
2022-10-22T05:43:21.888Z,95420.9
2022-10-22T05:44:23.800Z,95421.8
2022-10-22T05:45:25.718Z,95419.7
2022-10-22T05:46:27.943Z,95418.9
2022-10-22T05:47:29.583Z,95420.2
2022-10-22T05:49:35.340Z,95422.1
2022-10-22T05:50:37.592Z,95419.4
2022-10-22T05:51:40.068Z,95422.4
2022-10-22T05:52:44.091Z,95417.6
2022-10-22T05:53:46.343Z,95415.7
2022-10-22T05:54:48.867Z,95408.7
2022-10-22T05:55:50.788Z,95405.4
2022-10-22T05:56:53.263Z,95391.4
2022-10-22T05:57:55.754Z,95401.8
2022-10-22T05:58:58.310Z,95409.4
2022-10-22T06:00:00.630Z,95412.6
2022-10-22T06:01:02.825Z,95410.9
2022-10-22T06:02:05.377Z,95413
2022-10-22T06:03:07.737Z,95417.1
2022-10-22T06:04:09.650Z,95418.3
2022-10-22T06:05:11.861Z,95426
2022-10-22T06:06:14.363Z,95425.8
2022-10-22T06:07:16.585Z,95418.6
2022-10-22T06:08:20.407Z,95420.3
2022-10-22T06:09:22.610Z,95419.1
2022-10-22T06:10:25.230Z,95420.5
2022-10-22T06:12:32.693Z,95415.8
2022-10-22T06:13:34.882Z,95410.3
2022-10-22T06:14:37.343Z,95410.4
2022-10-22T06:15:39.546Z,95413.5
2022-10-22T06:16:41.736Z,95414.3
2022-10-22T06:17:44.242Z,95418.1
2022-10-22T06:18:47.184Z,95422
2022-10-22T06:19:49.676Z,95424.9
2022-10-22T06:20:51.866Z,95432.9
2022-10-22T06:21:54.080Z,95435.2
2022-10-22T06:22:56.570Z,95436.8
2022-10-22T06:23:59.112Z,95431.1
2022-10-22T06:25:01.606Z,95438.6
2022-10-22T06:26:04.082Z,95437.3
2022-10-22T06:27:06.540Z,95441.9
2022-10-22T06:28:09.015Z,95440.9
2022-10-22T06:29:10.928Z,95444.4
2022-10-22T06:30:13.139Z,95444.7
2022-10-22T06:31:15.599Z,95448.1
2022-10-22T06:32:18.091Z,95452.8
2022-10-22T06:33:20.595Z,95446.9
2022-10-22T06:34:22.500Z,95448.1
2022-10-22T06:35:25.001Z,95447
2022-10-22T06:36:26.912Z,95441.6
2022-10-22T06:37:29.514Z,95447.6
2022-10-22T06:38:32.007Z,95446.7
2022-10-22T06:39:34.173Z,95449
2022-10-22T06:40:36.372Z,95452.3
2022-10-22T06:41:39.285Z,95450
2022-10-22T06:42:42.631Z,95451.5
2022-10-22T06:43:45.727Z,95452.6
2022-10-22T06:44:48.122Z,95453.9
2022-10-22T06:45:50.589Z,95462.9
2022-10-22T06:46:53.122Z,95458.7
2022-10-22T06:47:56.164Z,95455.8
2022-10-22T06:48:58.428Z,95450.4
2022-10-22T06:50:00.890Z,95444.9
2022-10-22T06:51:03.126Z,95449.4
2022-10-22T06:52:05.587Z,95450.5
2022-10-22T06:53:08.161Z,95449.5
2022-10-22T06:54:10.525Z,95454.5
2022-10-22T06:55:12.999Z,95454.2
2022-10-22T06:56:15.185Z,95465.9
2022-10-22T06:57:17.109Z,95471.7
2022-10-22T06:58:19.608Z,95470.2
2022-10-22T06:59:22.097Z,95475.1
2022-10-22T07:00:24.809Z,95484.8
2022-10-22T07:01:27.898Z,95487.7
2022-10-22T07:02:30.467Z,95485.9
2022-10-22T07:03:32.668Z,95485
2022-10-22T07:04:35.181Z,95485.9
2022-10-22T07:05:37.376Z,95484.8
2022-10-22T07:06:39.609Z,95483.8
2022-10-22T07:07:42.086Z,95492.3
2022-10-22T07:08:44.371Z,95489
2022-10-22T07:09:47.275Z,95496.9
2022-10-22T07:10:49.608Z,95500.9
2022-10-22T07:11:51.822Z,95508.8
2022-10-22T07:12:54.299Z,95512.3
2022-10-22T07:13:57.100Z,95512.7
2022-10-22T07:14:59.583Z,95515.8
2022-10-22T07:16:01.784Z,95523.8
2022-10-22T07:17:03.986Z,95528
2022-10-22T07:18:05.904Z,95532.1
2022-10-22T07:19:08.380Z,95532.5
2022-10-22T07:20:10.333Z,95536.2
2022-10-22T07:21:12.535Z,95541.4
2022-10-22T07:22:15.019Z,95547.9
2022-10-22T07:23:17.509Z,95546.7
2022-10-22T07:24:19.732Z,95551.2
2022-10-22T07:25:22.253Z,95554.7
2022-10-22T07:26:24.724Z,95552.7
2022-10-22T07:27:26.943Z,95557
2022-10-22T07:28:29.139Z,95554.3
2022-10-22T07:29:31.613Z,95559.4
2022-10-22T07:30:34.086Z,95557.4
2022-10-22T07:31:36.289Z,95556.7
2022-10-22T07:32:38.218Z,95558.7
2022-10-22T07:33:40.424Z,95556.1
2022-10-22T07:35:48.079Z,95561
2022-10-22T07:36:50.009Z,95566.2
2022-10-22T07:37:52.493Z,95566.5
2022-10-22T07:38:54.704Z,95565
2022-10-22T07:41:02.314Z,95566.9
2022-10-22T07:42:04.811Z,95567.4
2022-10-22T07:43:07.288Z,95569.1
2022-10-22T07:44:09.786Z,95569.2
2022-10-22T07:45:12.297Z,95573.3
2022-10-22T07:46:14.770Z,95569.4
2022-10-22T07:47:17.243Z,95573.8
2022-10-22T07:48:19.450Z,95575.3
2022-10-22T07:49:21.625Z,95577.3
2022-10-22T07:50:24.026Z,95577.1
2022-10-22T07:51:26.232Z,95580.7
2022-10-22T07:52:28.429Z,95579.6
2022-10-22T07:53:30.942Z,95581.2
2022-10-22T07:54:33.426Z,95584.9
2022-10-22T07:55:35.930Z,95590
2022-10-22T07:56:38.414Z,95594.2
2022-10-22T07:57:40.635Z,95593
2022-10-22T07:58:43.117Z,95598.8
2022-10-22T07:59:45.311Z,95599.4
2022-10-22T08:00:48.067Z,95599.3
2022-10-22T08:01:50.543Z,95599
2022-10-22T08:02:52.503Z,95599.1
2022-10-22T08:03:54.430Z,95603
2022-10-22T08:04:56.917Z,95602.3
2022-10-22T08:05:59.091Z,95601.5
2022-10-22T08:07:01.597Z,95599.3
2022-10-22T08:08:04.165Z,95598.8
2022-10-22T08:09:06.375Z,95601.2
2022-10-22T08:10:08.733Z,95602
2022-10-22T08:11:11.397Z,95603.5
2022-10-22T08:12:13.604Z,95606.6
2022-10-22T08:13:16.108Z,95609.8
2022-10-22T08:14:18.296Z,95609.3
2022-10-22T08:15:20.475Z,95615
2022-10-22T08:16:22.959Z,95619.5
2022-10-22T08:17:25.164Z,95622.3
2022-10-22T08:18:27.378Z,95623.5
2022-10-22T08:19:29.582Z,95629.7
2022-10-22T08:20:32.057Z,95632.5
2022-10-22T08:21:34.268Z,95629.5
2022-10-22T08:22:36.469Z,95629.7
2022-10-22T08:23:38.945Z,95631.7
2022-10-22T08:24:40.895Z,95630.8
2022-10-22T08:25:42.803Z,95633.7
2022-10-22T08:26:45.014Z,95634.1
2022-10-22T08:27:47.575Z,95639.8
2022-10-22T08:28:49.509Z,95637.1
2022-10-22T08:29:51.990Z,95642.6
2022-10-22T08:30:54.249Z,95640.2
2022-10-22T08:31:56.787Z,95640.1
2022-10-22T08:32:59.261Z,95641
2022-10-22T08:34:01.455Z,95644.8
2022-10-22T08:35:03.947Z,95640.4
2022-10-22T08:36:06.162Z,95644.5
2022-10-22T08:37:08.396Z,95644.5
2022-10-22T08:38:10.739Z,95645.6
2022-10-22T08:39:13.208Z,95650.7
2022-10-22T08:40:15.436Z,95653.4
2022-10-22T08:41:17.921Z,95656.5
2022-10-22T08:42:20.420Z,95659.3
2022-10-22T08:43:22.906Z,95659.2
2022-10-22T08:44:40.049Z,95660.7
2022-10-22T08:45:41.950Z,95660.8
2022-10-22T08:46:44.149Z,95661.3
2022-10-22T08:47:46.340Z,95663.9
2022-10-22T08:48:48.280Z,95662.1
2022-10-22T08:49:50.503Z,95654.9
2022-10-22T08:50:52.980Z,95660.9
2022-10-22T08:51:55.465Z,95660.3
2022-10-22T08:52:57.939Z,95658.9
2022-10-22T08:54:00.165Z,95657.5
2022-10-22T08:55:02.639Z,95658.5
2022-10-22T08:56:04.870Z,95660.8
2022-10-22T08:57:07.352Z,95667.4
2022-10-22T08:58:09.849Z,95664.8
2022-10-22T08:59:12.064Z,95666.1
2022-10-22T09:00:14.268Z,95670.6
2022-10-22T09:01:16.741Z,95673.6
2022-10-22T09:02:19.212Z,95665.9
2022-10-22T09:03:21.389Z,95668.5
2022-10-22T09:04:23.285Z,95667
2022-10-22T09:05:25.490Z,95669.4
2022-10-22T09:06:27.705Z,95670
2022-10-22T09:07:29.877Z,95669.6
2022-10-22T09:08:32.738Z,95670.9
2022-10-22T09:09:34.743Z,95674.3
2022-10-22T09:10:37.221Z,95678
2022-10-22T09:11:39.809Z,95679
2022-10-22T09:12:42.278Z,95676.8
2022-10-22T09:13:44.226Z,95678.5
2022-10-22T09:14:46.419Z,95677.6
2022-10-22T09:15:49.435Z,95680.3
2022-10-22T09:16:51.630Z,95680.7
2022-10-22T09:17:53.576Z,95681.3
2022-10-22T09:18:55.799Z,95679
2022-10-22T09:19:58.010Z,95685.5
2022-10-22T09:20:59.934Z,95685.5
2022-10-22T09:22:02.430Z,95681
2022-10-22T09:23:04.912Z,95681.8
2022-10-22T09:24:07.387Z,95679.7
2022-10-22T09:25:09.965Z,95680
2022-10-22T09:26:11.886Z,95679.8
2022-10-22T09:27:14.375Z,95683.1
2022-10-22T09:28:16.849Z,95685.6
2022-10-22T09:29:19.943Z,95684.2
2022-10-22T09:30:23.134Z,95684.7
2022-10-22T09:31:25.645Z,95681.4
2022-10-22T09:32:27.596Z,95679.4
2022-10-22T09:33:30.066Z,95677.6
2022-10-22T09:34:31.992Z,95679.4
2022-10-22T09:35:34.192Z,95680.3
2022-10-22T09:36:36.401Z,95682.8
2022-10-22T09:37:38.351Z,95684.1
2022-10-22T09:38:40.558Z,95680.1
2022-10-22T09:39:42.483Z,95681.3
2022-10-22T09:40:45.002Z,95682.3
2022-10-22T09:41:47.529Z,95684.4
2022-10-22T09:42:50.167Z,95682.3
2022-10-22T09:43:52.385Z,95689.5
2022-10-22T09:44:54.631Z,95685.5
2022-10-22T09:45:56.844Z,95689.6
2022-10-22T09:46:59.331Z,95689
2022-10-22T09:48:04.064Z,95691
2022-10-22T09:49:06.541Z,95692.7
2022-10-22T09:50:09.031Z,95699.6
2022-10-22T09:51:11.493Z,95703.7
2022-10-22T09:52:13.992Z,95710
2022-10-22T09:53:16.472Z,95709.4
2022-10-22T09:54:18.950Z,95707.6
2022-10-22T09:55:21.177Z,95708.7
2022-10-22T09:56:23.395Z,95711
2022-10-22T09:57:25.896Z,95704.4
2022-10-22T09:58:28.396Z,95705.8
2022-10-22T09:59:30.598Z,95705.6
2022-10-22T10:00:32.858Z,95709.7
2022-10-22T10:01:35.058Z,95710.4
2022-10-22T10:03:42.535Z,95713.1
2022-10-22T10:04:45.009Z,95711.4
2022-10-22T10:05:47.575Z,95707.6
2022-10-22T10:06:49.904Z,95709
2022-10-22T10:07:52.372Z,95709.5
2022-10-22T10:08:55.312Z,95711.5
2022-10-22T10:09:57.826Z,95707.2
2022-10-22T10:11:00.339Z,95706.7
2022-10-22T10:12:02.844Z,95704.2
2022-10-22T10:13:05.333Z,95704
2022-10-22T10:14:07.822Z,95703.8
2022-10-22T10:15:10.295Z,95700.7
2022-10-22T10:16:12.832Z,95706.8
2022-10-22T10:17:15.318Z,95706.9
2022-10-22T10:18:17.250Z,95700.1
2022-10-22T10:19:19.768Z,95698.6
2022-10-22T10:20:22.236Z,95697.4
2022-10-22T10:21:24.726Z,95691.1
2022-10-22T10:22:26.912Z,95693.6
2022-10-22T10:23:28.829Z,95688.5
2022-10-22T10:24:31.295Z,95696
2022-10-22T10:25:33.516Z,95692.2
2022-10-22T10:26:35.718Z,95691.5
2022-10-22T10:27:38.392Z,95693
2022-10-22T10:28:40.857Z,95692.4
2022-10-22T10:29:43.086Z,95691.9
2022-10-22T10:30:45.594Z,95689.3
2022-10-22T10:31:47.704Z,95694.5
2022-10-22T10:32:50.168Z,95691.5
2022-10-22T10:33:51.567Z,95690.5
2022-10-22T10:34:54.044Z,95695
2022-10-22T10:35:56.790Z,95690.9
2022-10-22T10:36:58.964Z,95687.8
2022-10-22T10:38:01.473Z,95689.2
2022-10-22T10:39:03.947Z,95688
2022-10-22T10:40:06.416Z,95689.8
2022-10-22T10:41:08.632Z,95687.4
2022-10-22T10:42:11.124Z,95690.4
2022-10-22T10:43:13.643Z,95692.6
2022-10-22T10:44:15.854Z,95691.2
2022-10-22T10:45:18.060Z,95688.4
2022-10-22T10:46:20.338Z,95689.6
2022-10-22T10:47:22.598Z,95687.2
2022-10-22T10:48:24.808Z,95690.3
2022-10-22T10:49:27.315Z,95689.4
2022-10-22T10:50:29.785Z,95684.6
2022-10-22T10:51:31.997Z,95686
2022-10-22T10:52:34.466Z,95684.4
2022-10-22T10:53:36.380Z,95681.1
2022-10-22T10:54:39.896Z,95685.3
2022-10-22T10:55:42.104Z,95679.2
2022-10-22T10:56:44.582Z,95684.5
2022-10-22T10:57:46.783Z,95684.5
2022-10-22T10:58:48.702Z,95677
2022-10-22T10:59:50.608Z,95680.1
2022-10-22T11:00:53.096Z,95679.6
2022-10-22T11:01:55.806Z,95677.6
2022-10-22T11:02:58.479Z,95677.1
2022-10-22T11:04:00.956Z,95678.4
2022-10-22T11:05:03.501Z,95679.3
2022-10-22T11:06:05.990Z,95677.2
2022-10-22T11:08:13.454Z,95676.6
2022-10-22T11:09:16.296Z,95674.3
2022-10-22T11:10:18.616Z,95679.2
2022-10-22T11:11:21.318Z,95677.7
2022-10-22T11:12:23.785Z,95678.5
2022-10-22T11:13:26.281Z,95671.1
2022-10-22T11:15:33.831Z,95674
2022-10-22T11:16:36.338Z,95679.5
2022-10-22T11:17:37.983Z,95669.4
2022-10-22T11:18:40.251Z,95673.5
2022-10-22T11:20:47.432Z,95672.7
2022-10-22T11:21:49.380Z,95671.7
2022-10-22T11:23:56.567Z,95673.6
2022-10-22T11:24:58.780Z,95676.1
2022-10-22T11:26:00.459Z,95673.6
2022-10-22T11:27:02.941Z,95670.6
2022-10-22T11:29:10.420Z,95676.6
2022-10-22T11:30:12.910Z,95672.4
2022-10-22T11:31:14.847Z,95671.4
2022-10-22T11:32:17.338Z,95678.7
2022-10-22T11:33:19.556Z,95672.2
2022-10-22T11:35:27.315Z,95671.1
2022-10-22T11:37:32.520Z,95672.6
2022-10-22T11:38:36.605Z,95673
2022-10-22T11:39:39.080Z,95667.8
2022-10-22T11:40:41.554Z,95673.5
2022-10-22T11:41:44.028Z,95667.4
2022-10-22T11:42:46.499Z,95661.9
2022-10-22T11:43:48.693Z,95665.2
2022-10-22T11:45:53.984Z,95664.4
2022-10-22T11:46:55.962Z,95668.9
2022-10-22T11:47:58.438Z,95658.9
2022-10-22T11:49:00.639Z,95662.8
2022-10-22T11:50:02.554Z,95667.3
2022-10-22T11:51:05.083Z,95656.5
2022-10-22T11:52:07.298Z,95666
2022-10-22T11:54:13.487Z,95665.9
2022-10-22T11:55:15.426Z,95662.9
2022-10-22T11:56:17.048Z,95662.7
2022-10-22T11:57:19.277Z,95663.7
2022-10-22T11:58:21.765Z,95663.5
2022-10-22T11:59:23.979Z,95666.3
2022-10-22T12:00:26.530Z,95666.9
2022-10-22T12:01:29.284Z,95665.5
2022-10-22T12:02:31.907Z,95660.3
2022-10-22T12:03:34.408Z,95664.7
2022-10-22T12:04:36.578Z,95663
2022-10-22T12:05:38.560Z,95666.4
2022-10-22T12:06:40.804Z,95669.1
2022-10-22T12:07:43.293Z,95662.4
2022-10-22T12:08:45.480Z,95667.2
2022-10-22T12:09:48.072Z,95667.9
2022-10-22T12:10:50.371Z,95660.4
2022-10-22T12:11:52.888Z,95665.8
2022-10-22T12:12:55.089Z,95664.2
2022-10-22T12:13:57.043Z,95665.5
2022-10-22T12:14:59.347Z,95663.9
2022-10-22T12:16:01.872Z,95660.8
2022-10-22T12:17:04.390Z,95662.4
2022-10-22T12:18:06.355Z,95666.3
2022-10-22T12:19:08.909Z,95669.4
2022-10-22T12:20:11.117Z,95666
2022-10-22T12:21:13.294Z,95657.2
2022-10-22T12:22:15.800Z,95664
2022-10-22T12:23:17.177Z,95659.8
2022-10-22T12:24:19.394Z,95661.3
2022-10-22T12:25:21.883Z,95658.1
2022-10-22T12:26:24.515Z,95654.5
2022-10-22T12:27:26.495Z,95654.9
2022-10-22T12:28:28.725Z,95654.5
2022-10-22T12:29:30.661Z,95652.6
2022-10-22T12:30:32.852Z,95656
2022-10-22T12:31:35.042Z,95655.4
2022-10-22T12:32:37.528Z,95654.4
2022-10-22T12:33:39.740Z,95656
2022-10-22T12:34:42.216Z,95655.7
2022-10-22T12:35:44.547Z,95653
2022-10-22T12:36:46.738Z,95661
2022-10-22T12:37:49.260Z,95650.8
2022-10-22T12:38:51.727Z,95646.5
2022-10-22T12:39:54.227Z,95656.7
2022-10-22T12:40:56.149Z,95650.3
2022-10-22T12:41:58.487Z,95650.9
2022-10-22T12:43:01.173Z,95651.2
2022-10-22T12:44:03.819Z,95653.2
2022-10-22T12:45:06.018Z,95651.3
2022-10-22T12:46:08.220Z,95649.3
2022-10-22T12:47:10.684Z,95652.1
2022-10-22T12:48:12.886Z,95650.1
2022-10-22T12:49:15.108Z,95651.5
2022-10-22T12:50:17.603Z,95652.4
2022-10-22T12:51:20.347Z,95649.9
2022-10-22T12:52:22.945Z,95651
2022-10-22T12:53:25.479Z,95647
2022-10-22T12:54:27.402Z,95650.5
2022-10-22T12:55:29.616Z,95651.6
2022-10-22T12:56:32.089Z,95649.2
2022-10-22T12:57:34.005Z,95649.8
2022-10-22T12:58:36.485Z,95648.6
2022-10-22T12:59:39.173Z,95646.9
2022-10-22T13:00:42.092Z,95650.8
2022-10-22T13:01:44.686Z,95649.1